Time;durP1;ratioP1;P1;durP2;ratioP2;P2;SDS_P1;SDS_P2;PMS_P1;PMS_P2;Temp;Humidity;BMP_temperature;BMP_pressure;BME280_temperature;BME280_humidity;BME280_pressure;Samples;Min_cycle;Max_cycle;Signal;HPM_P1;HPM_P2
2022/08/05 00:01:13;;;;;;;4.97;2.90;;;24.70;92.90;;;;;;5093359;28;20109;-73
2022/08/05 00:03:39;;;;;;;3.77;2.30;;;24.70;93.00;;;;;;5093806;28;20144;-74
2022/08/05 00:06:06;;;;;;;4.22;2.55;;;24.60;93.00;;;;;;5091844;28;20031;-73
2022/08/05 00:08:32;;;;;;;4.68;2.45;;;24.60;93.30;;;;;;5111079;28;20538;-73
2022/08/05 00:10:58;;;;;;;4.28;2.03;;;24.50;93.30;;;;;;5111811;28;20044;-73
2022/08/05 00:13:24;;;;;;;5.53;2.17;;;24.30;93.80;;;;;;5106868;28;20157;-73
2022/08/05 00:15:50;;;;;;;4.75;2.70;;;24.20;94.30;;;;;;5092242;28;20478;-73
2022/08/05 00:18:15;;;;;;;4.10;2.58;;;24.20;93.80;;;;;;5094931;28;20035;-73
2022/08/05 00:20:41;;;;;;;5.40;3.10;;;24.30;93.80;;;;;;5099156;28;20043;-73
2022/08/05 00:23:07;;;;;;;6.13;2.65;;;24.20;93.80;;;;;;5112902;28;20393;-73
2022/08/05 00:25:32;;;;;;;3.72;2.55;;;24.20;93.90;;;;;;5097788;28;20505;-73
2022/08/05 00:27:58;;;;;;;6.32;2.70;;;24.20;94.00;;;;;;5092058;28;20474;-73
2022/08/05 00:30:24;;;;;;;5.82;2.75;;;24.20;93.80;;;;;;5094120;28;20405;-73
2022/08/05 00:32:50;;;;;;;5.00;2.80;;;24.30;93.80;;;;;;5105395;28;20431;-73
2022/08/05 00:35:16;;;;;;;4.20;2.42;;;24.20;93.90;;;;;;5103076;28;20088;-73
2022/08/05 00:37:42;;;;;;;4.70;3.17;;;24.20;93.90;;;;;;5091857;28;20490;-73
2022/08/05 00:40:08;;;;;;;4.10;2.30;;;24.40;93.80;;;;;;5093624;28;20371;-73
2022/08/05 00:42:38;;;;;;;4.25;2.45;;;24.30;93.80;;;;;;5094766;28;20168;-73
2022/08/05 00:45:06;;;;;;;4.80;2.72;;;24.30;94.00;;;;;;5110397;28;20031;-73
2022/08/05 00:47:32;;;;;;;5.85;3.00;;;24.30;93.90;;;;;;5095503;28;20107;-73
2022/08/05 00:49:58;;;;;;;4.40;2.53;;;24.30;93.80;;;;;;5095435;28;20036;-73
2022/08/05 00:52:24;;;;;;;5.32;2.78;;;24.30;94.00;;;;;;5115950;28;20038;-73
2022/08/05 00:54:49;;;;;;;4.22;2.72;;;24.30;94.20;;;;;;5111715;28;20024;-73
2022/08/05 00:57:15;;;;;;;5.93;3.08;;;24.20;94.00;;;;;;5114488;28;20043;-73
2022/08/05 00:59:41;;;;;;;3.67;2.33;;;24.20;94.10;;;;;;5113096;28;20024;-73
2022/08/05 01:02:06;;;;;;;5.22;2.63;;;24.30;94.00;;;;;;5095879;28;20020;-73
2022/08/05 01:04:32;;;;;;;10.27;2.95;;;24.30;93.90;;;;;;5094933;28;20042;-73
2022/08/05 01:06:58;;;;;;;5.53;2.60;;;24.20;94.10;;;;;;5095834;28;20063;-73
2022/08/05 01:09:23;;;;;;;4.18;2.45;;;24.30;94.20;;;;;;5095146;28;20046;-73
2022/08/05 01:11:52;;;;;;;5.35;2.50;;;24.20;94.00;;;;;;5095825;28;20028;-73
2022/08/05 01:14:43;;;;;;;4.43;2.60;;;24.10;94.10;;;;;;5095104;28;20500;-73
2022/08/05 01:17:33;;;;;;;9.60;2.63;;;24.20;94.10;;;;;;5095440;28;20038;-73
2022/08/05 01:20:12;;;;;;;5.05;2.20;;;24.10;94.30;;;;;;5100141;28;20452;-73
2022/08/05 01:22:50;;;;;;;4.15;2.60;;;24.10;94.20;;;;;;5114264;28;20063;-73
2022/08/05 01:25:33;;;;;;;7.22;3.08;;;24.00;94.20;;;;;;5095147;28;20097;-73
2022/08/05 01:28:22;;;;;;;4.95;3.28;;;24.00;94.30;;;;;;5094650;28;20027;-74
2022/08/05 01:31:01;;;;;;;5.22;2.67;;;24.00;94.20;;;;;;5095448;28;20024;-73
2022/08/05 01:33:33;;;;;;;5.18;2.53;;;24.00;94.30;;;;;;5094210;28;20024;-73
2022/08/05 01:36:02;;;;;;;5.55;2.53;;;24.10;94.40;;;;;;5094669;28;20073;-73
2022/08/05 01:38:28;;;;;;;3.97;2.42;;;24.00;94.50;;;;;;5095355;28;20457;-73
2022/08/05 01:40:57;;;;;;;4.47;2.70;;;24.00;94.60;;;;;;5094673;28;20119;-73
2022/08/05 01:43:25;;;;;;;5.32;3.10;;;23.90;94.50;;;;;;5094985;28;20115;-73
2022/08/05 01:45:52;;;;;;;5.30;2.70;;;23.80;94.70;;;;;;5094252;28;20110;-73
2022/08/05 01:48:19;;;;;;;4.18;2.75;;;24.00;94.60;;;;;;5110900;28;20036;-73
2022/08/05 01:50:45;;;;;;;4.53;3.00;;;24.00;94.60;;;;;;5094944;28;20377;-73
2022/08/05 01:53:15;;;;;;;5.40;2.50;;;23.90;94.60;;;;;;5094118;28;20054;-73
2022/08/05 01:55:43;;;;;;;7.55;2.95;;;23.90;94.70;;;;;;5095089;28;20031;-73
2022/08/05 01:58:11;;;;;;;3.63;2.63;;;23.80;94.70;;;;;;5093552;28;20136;-73
2022/08/05 02:00:43;;;;;;;4.85;2.67;;;23.90;94.80;;;;;;5093752;28;20095;-73
2022/08/05 02:03:35;;;;;;;5.82;3.22;;;23.90;94.80;;;;;;5097102;28;20367;-73
2022/08/05 02:06:04;;;;;;;4.93;2.88;;;23.90;94.80;;;;;;5096741;28;20027;-73
2022/08/05 02:08:31;;;;;;;4.60;2.97;;;23.90;94.80;;;;;;5110312;28;20039;-73
2022/08/05 02:11:09;;;;;;;4.72;2.95;;;23.90;94.80;;;;;;5094323;28;20024;-73
2022/08/05 02:13:41;;;;;;;3.75;2.30;;;23.80;95.20;;;;;;5093561;28;20032;-73
2022/08/05 02:16:30;;;;;;;6.13;3.03;;;23.90;94.70;;;;;;5094488;28;20102;-73
2022/08/05 02:19:12;;;;;;;4.95;3.10;;;24.00;94.60;;;;;;5093968;28;20069;-73
2022/08/05 02:21:53;;;;;;;5.13;2.60;;;24.10;94.60;;;;;;5094205;28;20358;-73
2022/08/05 02:24:21;;;;;;;3.35;2.28;;;24.20;94.30;;;;;;5093730;28;20443;-73
2022/08/05 02:26:51;;;;;;;5.88;2.67;;;24.40;94.00;;;;;;5094259;28;20023;-73
2022/08/05 02:29:22;;;;;;;4.18;2.63;;;24.30;94.10;;;;;;5093679;28;20454;-73
2022/08/05 02:31:50;;;;;;;5.03;2.47;;;24.00;94.80;;;;;;5093693;28;20039;-73
2022/08/05 02:34:16;;;;;;;6.72;3.28;;;23.90;94.60;;;;;;5093639;28;20035;-73
2022/08/05 02:36:47;;;;;;;3.78;2.40;;;23.80;94.90;;;;;;5092895;28;20024;-73
2022/08/05 02:39:17;;;;;;;6.18;2.38;;;23.70;95.20;;;;;;5093965;28;20028;-73
2022/08/05 02:41:46;;;;;;;4.65;2.70;;;23.60;95.30;;;;;;5093621;28;20497;-73
2022/08/05 02:44:13;;;;;;;4.53;2.83;;;23.50;95.30;;;;;;5093121;28;20036;-73
2022/08/05 02:46:41;;;;;;;5.40;3.22;;;23.50;95.50;;;;;;5092909;28;20371;-73
2022/08/05 02:49:07;;;;;;;5.57;2.80;;;23.60;95.40;;;;;;5093682;28;20035;-73
2022/08/05 02:51:36;;;;;;;5.40;2.95;;;23.80;95.10;;;;;;5093864;28;20386;-73
2022/08/05 02:54:03;;;;;;;4.35;2.70;;;23.70;95.20;;;;;;5104571;28;20105;-73
2022/08/05 02:56:29;;;;;;;7.05;2.72;;;23.70;95.20;;;;;;5107373;28;20032;-73
2022/08/05 02:58:56;;;;;;;5.97;3.00;;;23.60;95.40;;;;;;5093574;28;20090;-73
2022/08/05 03:01:26;;;;;;;4.72;2.80;;;23.80;95.10;;;;;;5093019;28;20028;-73
2022/08/05 03:03:59;;;;;;;6.75;3.63;;;23.70;95.10;;;;;;5088524;28;20403;-73
2022/08/05 03:06:26;;;;;;;4.22;2.88;;;23.80;95.10;;;;;;5087992;28;20038;-73
2022/08/05 03:08:52;;;;;;;4.38;2.92;;;23.90;95.00;;;;;;5088335;28;20099;-73
2022/08/05 03:11:21;;;;;;;6.45;2.80;;;23.60;95.50;;;;;;5087745;28;20481;-73
2022/08/05 03:13:46;;;;;;;6.53;2.90;;;23.50;95.50;;;;;;5088671;28;20045;-73
2022/08/05 03:16:12;;;;;;;5.45;2.72;;;23.10;96.20;;;;;;5087329;28;20058;-72
2022/08/05 03:18:38;;;;;;;4.40;2.65;;;23.10;96.30;;;;;;5086173;28;20032;-73
2022/08/05 03:21:04;;;;;;;4.15;2.42;;;23.00;96.50;;;;;;5085271;28;20156;-73
2022/08/05 03:23:32;;;;;;;4.18;2.78;;;22.90;96.50;;;;;;5087758;28;20660;-73
2022/08/05 03:25:57;;;;;;;5.75;2.85;;;22.80;96.80;;;;;;5087698;28;20118;-73
2022/08/05 03:28:24;;;;;;;6.30;3.20;;;22.70;97.00;;;;;;5088071;28;20123;-73
2022/08/05 03:30:49;;;;;;;4.05;2.42;;;22.70;96.90;;;;;;5109245;28;20023;-72
2022/08/05 03:33:16;;;;;;;6.63;2.47;;;22.40;97.70;;;;;;5104567;28;20040;-73
2022/08/05 03:35:44;;;;;;;4.40;2.40;;;22.60;97.50;;;;;;5088807;28;20024;-73
2022/08/05 03:38:11;;;;;;;5.07;3.20;;;22.70;97.40;;;;;;5088087;28;20091;-73
2022/08/05 03:40:44;;;;;;;5.18;2.88;;;22.60;97.50;;;;;;5088486;28;20527;-73
2022/08/05 03:43:10;;;;;;;5.18;3.20;;;22.70;97.10;;;;;;5087940;28;20338;-73
2022/08/05 03:45:36;;;;;;;6.00;2.63;;;22.90;97.10;;;;;;5088785;28;20123;-73
2022/08/05 03:48:02;;;;;;;4.40;2.97;;;22.80;97.30;;;;;;5087744;28;20642;-73
2022/08/05 03:50:42;;;;;;;5.82;2.92;;;22.70;97.30;;;;;;5087833;28;20028;-73
2022/08/05 03:53:12;;;;;;;5.05;3.00;;;22.70;97.30;;;;;;5088009;28;20048;-73
2022/08/05 03:55:43;;;;;;;4.88;2.90;;;22.50;97.70;;;;;;5087976;28;20032;-73
2022/08/05 03:58:11;;;;;;;7.85;2.70;;;22.50;97.70;;;;;;5087484;28;20028;-73
2022/08/05 04:00:38;;;;;;;7.70;3.00;;;22.30;98.10;;;;;;5084932;28;20089;-73
2022/08/05 04:03:05;;;;;;;4.65;2.78;;;22.30;98.20;;;;;;5085349;28;20032;-73
2022/08/05 04:05:37;;;;;;;7.18;3.00;;;22.20;98.50;;;;;;5084442;28;20478;-73
2022/08/05 04:08:05;;;;;;;5.13;2.47;;;22.40;98.10;;;;;;5084554;28;20024;-73
2022/08/05 04:10:33;;;;;;;4.47;2.90;;;22.60;97.80;;;;;;5084275;28;20507;-73
2022/08/05 04:12:59;;;;;;;5.40;2.85;;;22.60;98.10;;;;;;5085778;28;20758;-73
2022/08/05 04:15:26;;;;;;;4.10;2.47;;;22.50;97.80;;;;;;5087708;28;20028;-73
2022/08/05 04:17:53;;;;;;;4.15;2.60;;;22.50;98.00;;;;;;5101900;28;20038;-73
2022/08/05 04:20:22;;;;;;;5.25;2.97;;;22.50;98.00;;;;;;5092109;28;20024;-73
2022/08/05 04:22:47;;;;;;;5.53;2.90;;;22.50;98.20;;;;;;5089182;28;20040;-73
2022/08/05 04:25:13;;;;;;;5.80;2.85;;;22.50;98.20;;;;;;5102256;28;20030;-73
2022/08/05 04:27:39;;;;;;;7.32;3.15;;;22.60;98.20;;;;;;5109538;28;20043;-73
2022/08/05 04:30:07;;;;;;;6.38;2.85;;;22.70;97.90;;;;;;5090961;28;20159;-73
2022/08/05 04:32:33;;;;;;;4.93;3.70;;;22.70;97.90;;;;;;5087787;28;20031;-73
2022/08/05 04:34:58;;;;;;;3.42;2.50;;;22.40;98.50;;;;;;5107687;28;20031;-73
2022/08/05 04:37:24;;;;;;;5.07;2.70;;;22.10;99.20;;;;;;5099501;28;20027;-72
2022/08/05 04:39:50;;;;;;;4.43;2.95;;;22.00;99.60;;;;;;5109592;28;20080;-72
2022/08/05 04:42:15;;;;;;;4.53;2.38;;;22.10;99.60;;;;;;5107294;28;20024;-73
2022/08/05 04:44:41;;;;;;;5.43;2.50;;;22.20;99.20;;;;;;5109492;28;20046;-72
2022/08/05 04:47:07;;;;;;;4.20;3.08;;;22.30;99.10;;;;;;5093214;28;20036;-72
2022/08/05 04:49:32;;;;;;;6.88;2.80;;;22.40;99.00;;;;;;5088960;28;20036;-72
2022/08/05 04:51:58;;;;;;;5.10;3.00;;;22.40;99.20;;;;;;5088412;28;20032;-73
2022/08/05 04:54:26;;;;;;;6.43;2.70;;;22.30;99.30;;;;;;5088613;28;20104;-73
2022/08/05 04:56:53;;;;;;;9.10;3.33;;;22.30;99.50;;;;;;5088311;28;20028;-72
2022/08/05 04:59:19;;;;;;;9.90;3.03;;;22.30;99.90;;;;;;5100306;28;20028;-72
2022/08/05 05:01:45;;;;;;;5.45;3.92;;;22.20;99.90;;;;;;5109246;28;20024;-72
2022/08/05 05:04:11;;;;;;;4.75;3.33;;;22.30;99.90;;;;;;5096440;28;20048;-73
2022/08/05 05:06:37;;;;;;;4.28;2.80;;;22.40;99.80;;;;;;5088745;28;20111;-72
2022/08/05 05:09:03;;;;;;;4.38;2.67;;;22.50;99.90;;;;;;5088148;28;20028;-73
2022/08/05 05:11:29;;;;;;;5.95;2.80;;;22.30;99.90;;;;;;5088509;28;20397;-72
2022/08/05 05:13:54;;;;;;;4.63;3.00;;;22.40;99.90;;;;;;5087717;28;20474;-72
2022/08/05 05:16:20;;;;;;;5.75;3.42;;;22.40;99.90;;;;;;5090719;28;20035;-72
2022/08/05 05:18:46;;;;;;;5.10;2.80;;;22.20;99.90;;;;;;5088619;28;20042;-72
2022/08/05 05:21:11;;;;;;;6.85;2.90;;;22.30;99.90;;;;;;5090096;28;20036;-72
2022/08/05 05:23:37;;;;;;;5.50;3.40;;;22.40;99.90;;;;;;5089778;28;20032;-73
2022/08/05 05:26:03;;;;;;;6.70;3.78;;;22.80;99.30;;;;;;5087706;28;20085;-72
2022/08/05 05:28:28;;;;;;;5.53;3.25;;;23.00;99.10;;;;;;5088405;28;20032;-72
2022/08/05 05:30:54;;;;;;;9.63;3.40;;;23.00;99.10;;;;;;5087973;28;20639;-72
2022/08/05 05:33:19;;;;;;;6.80;3.10;;;23.00;99.60;;;;;;5090715;28;20032;-73
2022/08/05 05:35:47;;;;;;;6.88;3.67;;;22.90;99.80;;;;;;5103320;28;20354;-73
2022/08/05 05:38:12;;;;;;;5.07;2.95;;;22.90;99.70;;;;;;5108622;28;20404;-73
2022/08/05 05:40:38;;;;;;;6.07;4.00;;;22.90;99.90;;;;;;5098952;28;20024;-73
2022/08/05 05:43:04;;;;;;;6.00;3.10;;;22.80;99.90;;;;;;5087801;28;20058;-73
2022/08/05 05:45:30;;;;;;;6.30;3.35;;;22.60;99.90;;;;;;5086870;28;20039;-73
2022/08/05 05:47:59;;;;;;;5.35;3.10;;;22.60;99.90;;;;;;5087693;28;20404;-73
2022/08/05 05:50:24;;;;;;;7.43;3.30;;;22.60;99.90;;;;;;5089666;28;20032;-73
2022/08/05 05:52:50;;;;;;;7.57;3.88;;;22.70;99.90;;;;;;5111253;28;20482;-73
2022/08/05 05:55:17;;;;;;;5.25;3.33;;;22.80;99.90;;;;;;5102353;28;20035;-72
2022/08/05 05:57:44;;;;;;;7.63;3.83;;;22.80;99.90;;;;;;5090987;28;20071;-73
2022/08/05 06:00:13;;;;;;;6.20;3.78;;;22.90;99.90;;;;;;5089928;28;20060;-72
2022/08/05 06:02:39;;;;;;;5.82;4.05;;;23.00;99.90;;;;;;5090637;28;20060;-73
2022/08/05 06:05:10;;;;;;;5.70;3.70;;;23.10;99.90;;;;;;5092321;28;20063;-72
2022/08/05 06:07:36;;;;;;;7.38;3.55;;;23.20;99.90;;;;;;5090402;28;20374;-72
2022/08/05 06:10:03;;;;;;;4.93;3.70;;;23.30;99.90;;;;;;5089922;28;20039;-73
2022/08/05 06:12:29;;;;;;;6.85;3.75;;;23.40;99.90;;;;;;5100969;28;20055;-73
2022/08/05 06:14:55;;;;;;;5.00;3.20;;;23.50;99.90;;;;;;5109064;28;20508;-73
2022/08/05 06:17:21;;;;;;;5.13;3.92;;;23.50;99.90;;;;;;5090598;28;20024;-73
2022/08/05 06:19:46;;;;;;;10.38;3.58;;;23.60;99.90;;;;;;5089551;28;20492;-73
2022/08/05 06:22:21;;;;;;;6.05;4.00;;;23.60;99.90;;;;;;5091956;28;20059;-73
2022/08/05 06:24:47;;;;;;;5.53;3.38;;;23.80;99.90;;;;;;5090084;28;20040;-73
2022/08/05 06:27:12;;;;;;;6.15;3.53;;;23.90;99.90;;;;;;5088955;28;20028;-73
2022/08/05 06:29:38;;;;;;;9.50;4.15;;;24.00;99.90;;;;;;5089983;28;20031;-73
2022/08/05 06:32:04;;;;;;;9.95;4.88;;;23.90;99.90;;;;;;5090235;28;20027;-73
2022/08/05 06:34:29;;;;;;;6.72;4.40;;;23.90;99.90;;;;;;5089892;28;20627;-73
2022/08/05 06:36:55;;;;;;;6.68;4.45;;;24.10;99.60;;;;;;5088424;28;20065;-73
2022/08/05 06:39:20;;;;;;;7.82;3.95;;;24.20;99.90;;;;;;5089855;28;20478;-73
2022/08/05 06:41:48;;;;;;;5.18;3.53;;;24.10;99.90;;;;;;5089067;28;20055;-73
2022/08/05 06:44:13;;;;;;;6.55;3.80;;;24.30;99.90;;;;;;5089442;28;20582;-73
2022/08/05 06:46:39;;;;;;;5.60;4.13;;;24.50;99.90;;;;;;5097177;28;20034;-73
2022/08/05 06:49:05;;;;;;;7.97;5.30;;;24.60;99.90;;;;;;5108647;28;20035;-73
2022/08/05 06:51:31;;;;;;;7.75;5.05;;;24.60;98.90;;;;;;5108320;28;20019;-73
2022/08/05 06:54:00;;;;;;;5.68;4.35;;;24.80;98.40;;;;;;5108011;28;20043;-73
2022/08/05 06:56:27;;;;;;;7.63;4.40;;;25.00;98.30;;;;;;5106556;28;20023;-73
2022/08/05 06:58:53;;;;;;;8.60;5.65;;;25.20;97.70;;;;;;5107522;28;20032;-73
2022/08/05 07:01:19;;;;;;;7.10;5.07;;;25.50;97.80;;;;;;5108720;28;20034;-73
2022/08/05 07:03:45;;;;;;;8.32;5.50;;;25.70;97.40;;;;;;5108356;28;20039;-73
2022/08/05 07:06:10;;;;;;;7.22;4.45;;;25.70;97.40;;;;;;5108360;28;20032;-73
2022/08/05 07:08:36;;;;;;;8.20;4.70;;;25.80;97.10;;;;;;5107972;28;20019;-73
2022/08/05 07:11:04;;;;;;;5.97;4.70;;;25.90;97.10;;;;;;5108187;28;20036;-73
2022/08/05 07:19:00;;;;;;;;;;;26.80;96.70;;;;;;5107993;28;20668;-73
2022/08/05 07:21:26;;;;;;;8.07;5.03;;;27.50;95.50;;;;;;5107874;28;19908;-73
2022/08/05 07:23:51;;;;;;;8.45;4.30;;;28.80;95.00;;;;;;5107462;28;20035;-73
2022/08/05 07:26:17;;;;;;;6.97;4.63;;;29.60;93.90;;;;;;5107534;28;20038;-73
2022/08/05 07:28:43;;;;;;;14.73;4.75;;;30.30;93.00;;;;;;5107773;28;20035;-73
2022/08/05 07:31:08;;;;;;;7.10;5.00;;;30.90;92.20;;;;;;5105679;28;20066;-73
2022/08/05 07:33:34;;;;;;;9.25;4.78;;;31.40;91.40;;;;;;5096573;28;20026;-73
2022/08/05 07:36:00;;;;;;;7.18;4.05;;;32.00;90.60;;;;;;5088707;28;20028;-74
2022/08/05 07:38:26;;;;;;;7.10;4.55;;;32.30;89.70;;;;;;5088629;28;20481;-73
2022/08/05 07:40:52;;;;;;;6.47;4.18;;;32.10;89.50;;;;;;5088300;28;21770;-73
2022/08/05 07:43:17;;;;;;;6.78;3.97;;;31.90;90.00;;;;;;5094193;28;20558;-74
2022/08/05 07:45:43;;;;;;;6.93;4.47;;;32.20;89.00;;;;;;5087691;28;20031;-74
2022/08/05 07:48:09;;;;;;;7.50;4.65;;;32.20;89.40;;;;;;5088479;28;20028;-74
2022/08/05 07:50:35;;;;;;;7.65;4.43;;;32.30;89.60;;;;;;5087998;28;20035;-74
2022/08/05 07:53:01;;;;;;;6.35;4.13;;;32.00;89.10;;;;;;5090350;28;20116;-73
2022/08/05 07:55:27;;;;;;;7.20;4.45;;;31.70;90.20;;;;;;5088176;28;20091;-73
2022/08/05 07:57:52;;;;;;;6.70;4.32;;;32.60;90.00;;;;;;5088555;28;20035;-73
2022/08/05 08:00:18;;;;;;;8.38;4.72;;;31.10;90.80;;;;;;5090015;28;20111;-73
2022/08/05 08:02:44;;;;;;;6.93;5.00;;;29.30;92.80;;;;;;5105794;28;20051;-73
2022/08/05 08:05:10;;;;;;;8.05;4.93;;;28.30;94.10;;;;;;5100368;28;20028;-73
2022/08/05 08:07:36;;;;;;;6.63;4.68;;;27.90;94.40;;;;;;5088987;28;20038;-73
2022/08/05 08:10:03;;;;;;;9.13;5.00;;;27.70;95.00;;;;;;5092000;28;20470;-73
2022/08/05 08:12:28;;;;;;;8.52;5.15;;;27.50;94.80;;;;;;5088397;28;20082;-74
2022/08/05 08:14:54;;;;;;;7.45;4.78;;;27.40;95.90;;;;;;5090057;28;20091;-74
2022/08/05 08:17:20;;;;;;;9.00;4.63;;;27.60;95.60;;;;;;5108983;28;20031;-73
2022/08/05 08:19:46;;;;;;;7.38;4.75;;;27.40;94.40;;;;;;5106114;28;20043;-73
2022/08/05 08:22:12;;;;;;;8.77;4.80;;;28.70;94.00;;;;;;5119256;28;20035;-73
2022/08/05 08:24:38;;;;;;;10.38;4.63;;;30.30;92.10;;;;;;5090457;28;20032;-73
2022/08/05 08:27:05;;;;;;;7.82;5.03;;;31.20;90.80;;;;;;5112640;28;20039;-74
2022/08/05 08:29:31;;;;;;;5.47;4.20;;;31.50;90.40;;;;;;5100450;28;20035;-74
2022/08/05 08:31:56;;;;;;;7.28;4.93;;;31.60;90.20;;;;;;5104957;28;20034;-74
2022/08/05 08:34:25;;;;;;;7.47;4.53;;;31.60;91.30;;;;;;5103142;28;20023;-73
2022/08/05 08:36:51;;;;;;;6.43;4.80;;;31.70;91.10;;;;;;5108083;28;20031;-73
2022/08/05 08:39:17;;;;;;;9.85;4.85;;;31.40;90.30;;;;;;5105349;28;20481;-74
2022/08/05 08:41:47;;;;;;;10.85;4.43;;;31.60;90.30;;;;;;5105827;28;20032;-73
2022/08/05 08:44:16;;;;;;;12.50;5.10;;;30.50;90.80;;;;;;5101840;28;20111;-74
2022/08/05 08:46:44;;;;;;;8.95;4.90;;;30.00;91.80;;;;;;5102870;28;20032;-74
2022/08/05 08:49:13;;;;;;;6.15;4.65;;;29.70;91.50;;;;;;5105627;28;20094;-75
2022/08/05 08:51:40;;;;;;;7.60;4.38;;;29.20;91.90;;;;;;5103110;28;20031;-73
2022/08/05 08:54:06;;;;;;;6.47;4.40;;;29.40;92.50;;;;;;5097560;28;20127;-73
2022/08/05 08:56:32;;;;;;;10.05;4.68;;;29.30;92.90;;;;;;5092055;28;20051;-74
2022/08/05 08:58:59;;;;;;;7.13;4.50;;;29.50;93.10;;;;;;5087115;28;20064;-74
2022/08/05 09:01:25;;;;;;;6.63;4.70;;;29.50;93.00;;;;;;5094652;28;20032;-74
2022/08/05 09:03:53;;;;;;;8.13;4.88;;;29.30;92.60;;;;;;5095088;27;20039;-73
2022/08/05 09:06:19;;;;;;;8.23;4.57;;;29.50;92.80;;;;;;5109573;27;20697;-73
2022/08/05 09:08:45;;;;;;;13.57;6.50;;;29.60;93.10;;;;;;5101029;27;20148;-74
2022/08/05 09:11:12;;;;;;;5.75;4.45;;;29.40;92.20;;;;;;5089269;28;20031;-74
2022/08/05 09:13:38;;;;;;;8.57;4.85;;;29.50;93.00;;;;;;5101730;28;20110;-74
2022/08/05 09:16:07;;;;;;;8.35;4.55;;;29.40;92.60;;;;;;5088129;28;20054;-74
2022/08/05 09:18:35;;;;;;;6.70;4.60;;;29.50;92.20;;;;;;5086478;28;20028;-74
2022/08/05 09:21:01;;;;;;;5.07;4.10;;;29.60;93.40;;;;;;5106333;27;20031;-73
2022/08/05 09:23:27;;;;;;;7.47;4.70;;;29.90;93.70;;;;;;5091173;27;20036;-73
2022/08/05 09:26:08;;;;;;;8.73;4.80;;;29.90;92.80;;;;;;5090257;28;20028;-73
2022/08/05 09:28:35;;;;;;;8.00;4.50;;;29.90;92.50;;;;;;5088992;28;20024;-73
2022/08/05 09:31:08;;;;;;;7.47;5.55;;;29.80;92.30;;;;;;5089486;28;20373;-73
2022/08/05 09:33:49;;;;;;;8.52;4.13;;;30.20;92.40;;;;;;5086839;28;20485;-74
2022/08/05 09:36:15;;;;;;;8.43;5.10;;;29.90;92.20;;;;;;5086962;28;20028;-73
2022/08/05 09:39:02;;;;;;;8.48;4.65;;;30.10;91.60;;;;;;5105776;27;20021;-73
2022/08/05 09:41:28;;;;;;;6.47;4.50;;;30.30;92.00;;;;;;5098771;28;20035;-72
2022/08/05 09:43:54;;;;;;;10.00;4.70;;;30.50;92.00;;;;;;5087430;28;20039;-73
2022/08/05 09:46:31;;;;;;;8.25;4.75;;;30.60;91.90;;;;;;5088643;28;20135;-73
2022/08/05 09:49:03;;;;;;;7.70;4.68;;;30.40;92.00;;;;;;5089079;28;20039;-72
2022/08/05 09:51:34;;;;;;;6.07;4.72;;;30.60;92.60;;;;;;5096075;28;20034;-72
2022/08/05 09:54:00;;;;;;;7.03;4.40;;;30.80;92.00;;;;;;5088147;28;20507;-72
2022/08/05 09:56:36;;;;;;;7.07;4.88;;;31.00;94.50;;;;;;5093474;28;20030;-73
2022/08/05 09:59:10;;;;;;;7.22;4.60;;;30.90;93.50;;;;;;5091541;28;20028;-72
2022/08/05 10:01:40;;;;;;;10.63;5.38;;;30.60;93.20;;;;;;5090156;28;20032;-74
2022/08/05 10:04:12;;;;;;;6.68;4.60;;;30.60;92.30;;;;;;5086667;28;20035;-73
2022/08/05 10:06:52;;;;;;;6.97;4.55;;;30.60;92.70;;;;;;5089986;28;20053;-73
2022/08/05 10:09:22;;;;;;;7.82;5.00;;;30.60;92.10;;;;;;5098428;28;20051;-73
2022/08/05 10:11:49;;;;;;;7.10;4.50;;;30.70;91.60;;;;;;5101423;27;20076;-73
2022/08/05 10:14:27;;;;;;;8.02;4.13;;;30.90;91.20;;;;;;5101968;27;20031;-73
2022/08/05 10:16:55;;;;;;;7.72;4.00;;;31.00;91.60;;;;;;5093957;28;20102;-72
2022/08/05 10:19:25;;;;;;;6.20;4.40;;;30.90;91.40;;;;;;5089292;28;20036;-72
2022/08/05 10:21:51;;;;;;;7.32;4.15;;;31.30;91.10;;;;;;5087772;28;20115;-72
2022/08/05 10:24:18;;;;;;;11.05;4.72;;;31.60;91.40;;;;;;5115637;27;20023;-72
2022/08/05 10:26:47;;;;;;;9.80;4.32;;;31.40;90.80;;;;;;5092188;27;20387;-72
2022/08/05 10:29:13;;;;;;;6.95;3.90;;;31.70;91.30;;;;;;5101689;27;20034;-72
2022/08/05 10:31:39;;;;;;;5.45;4.15;;;32.00;90.10;;;;;;5087153;28;20048;-72
2022/08/05 10:34:09;;;;;;;8.35;4.35;;;31.70;89.70;;;;;;5086868;28;20031;-72
2022/08/05 10:36:36;;;;;;;8.43;4.13;;;31.70;90.00;;;;;;5093725;28;20028;-72
2022/08/05 10:39:09;;;;;;;19.63;5.75;;;31.80;90.50;;;;;;5091147;28;20034;-72
2022/08/05 10:42:00;;;;;;;7.72;4.13;;;31.90;90.60;;;;;;5091758;28;20035;-72
2022/08/05 10:44:26;;;;;;;8.35;4.00;;;32.00;89.90;;;;;;5080860;28;20488;-72
2022/08/05 10:46:55;;;;;;;8.02;4.30;;;32.30;90.80;;;;;;5109302;27;20015;-72
2022/08/05 10:49:22;;;;;;;6.60;4.40;;;32.10;89.10;;;;;;5130595;27;20027;-72
2022/08/05 10:51:51;;;;;;;7.63;4.10;;;32.00;90.40;;;;;;5130484;27;20029;-72
2022/08/05 10:54:17;;;;;;;5.60;3.70;;;32.30;91.30;;;;;;5110533;27;20439;-72
2022/08/05 10:56:56;;;;;;;6.28;3.90;;;32.20;89.70;;;;;;5105101;28;20019;-73
2022/08/05 10:59:27;;;;;;;6.03;3.45;;;32.10;90.40;;;;;;5108150;28;20089;-72
2022/08/05 11:02:10;;;;;;;6.05;3.45;;;32.30;90.00;;;;;;5091105;28;20110;-72
2022/08/05 11:04:54;;;;;;;5.72;3.38;;;32.20;88.20;;;;;;5102242;28;20537;-72
2022/08/05 11:07:20;;;;;;;7.40;3.50;;;32.20;89.00;;;;;;5115516;27;20035;-72
2022/08/05 11:09:50;;;;;;;5.47;3.25;;;31.90;88.10;;;;;;5099169;28;20028;-71
2022/08/05 11:12:25;;;;;;;4.88;2.92;;;32.10;87.90;;;;;;5092585;28;20615;-72
2022/08/05 11:15:07;;;;;;;6.00;3.58;;;32.10;88.20;;;;;;5116636;27;20034;-71
2022/08/05 11:17:37;;;;;;;6.53;3.53;;;32.20;88.10;;;;;;5127527;27;20052;-71
2022/08/05 11:20:04;;;;;;;7.15;3.90;;;32.40;89.50;;;;;;5109854;28;20016;-71
2022/08/05 11:22:47;;;;;;;7.25;3.80;;;32.70;90.10;;;;;;5109450;28;20645;-72
2022/08/05 11:25:32;;;;;;;7.57;3.15;;;32.90;90.40;;;;;;5108922;28;20140;-72
2022/08/05 11:28:10;;;;;;;6.72;3.70;;;32.70;87.70;;;;;;5109714;28;20073;-72
2022/08/05 11:30:54;;;;;;;6.93;3.30;;;32.70;89.00;;;;;;5117590;27;20023;-72
2022/08/05 11:33:29;;;;;;;;;;;32.70;89.10;;;;;;5130313;27;20026;-72
2022/08/05 11:35:58;;;;;;;7.03;2.80;;;32.90;89.00;;;;;;5119178;27;19912;-72
2022/08/05 11:38:42;;;;;;;4.03;2.90;;;33.10;86.80;;;;;;5098067;28;20062;-73
2022/08/05 11:41:16;;;;;;;4.82;2.35;;;33.60;86.70;;;;;;5099852;28;20115;-72
2022/08/05 11:43:59;;;;;;;4.78;2.72;;;33.90;84.50;;;;;;5108232;28;20179;-72
2022/08/05 11:46:44;;;;;;;9.63;2.63;;;34.00;85.30;;;;;;5089238;28;20161;-72
2022/08/05 11:49:12;;;;;;;7.10;2.65;;;34.00;83.30;;;;;;5081312;28;20349;-73
2022/08/05 11:51:43;;;;;;;3.90;2.40;;;33.90;81.90;;;;;;5093989;28;20036;-72
2022/08/05 11:54:11;;;;;;;7.43;2.65;;;34.10;84.10;;;;;;5123328;27;20039;-72
2022/08/05 11:56:52;;;;;;;4.72;2.45;;;34.10;83.70;;;;;;5125859;28;20028;-72
2022/08/05 11:59:21;;;;;;;4.20;2.45;;;34.00;82.00;;;;;;5108971;28;20030;-72
2022/08/05 12:01:54;;;;;;;9.88;2.88;;;34.20;82.20;;;;;;5109125;28;20028;-73
2022/08/05 12:04:20;;;;;;;4.30;2.33;;;34.30;81.80;;;;;;5099386;28;20035;-72
2022/08/05 12:06:46;;;;;;;5.80;2.85;;;34.50;82.20;;;;;;5088459;28;20042;-72
2022/08/05 12:09:16;;;;;;;7.20;2.13;;;34.40;82.10;;;;;;5103107;28;20403;-72
2022/08/05 12:11:44;;;;;;;4.43;2.28;;;34.60;82.00;;;;;;5129604;28;20456;-74
2022/08/05 12:14:09;;;;;;;4.88;2.75;;;34.60;79.80;;;;;;5129420;28;20028;-72
2022/08/05 12:16:37;;;;;;;6.88;3.35;;;34.20;81.00;;;;;;5129500;28;20054;-71
2022/08/05 12:19:04;;;;;;;32.90;23.45;;;34.20;81.70;;;;;;5129634;28;20030;-72
2022/08/05 12:21:33;;;;;;;31.10;19.33;;;34.60;81.00;;;;;;5107199;28;20362;-72
2022/08/05 12:24:07;;;;;;;26.50;8.32;;;34.70;81.00;;;;;;5088233;28;20067;-71
2022/08/05 12:26:34;;;;;;;7.00;4.28;;;34.60;81.20;;;;;;5088437;28;20024;-72
2022/08/05 12:29:00;;;;;;;7.32;2.42;;;34.70;81.50;;;;;;5088718;28;20038;-72
2022/08/05 12:31:26;;;;;;;4.28;2.35;;;34.70;79.80;;;;;;5088576;28;20198;-72
2022/08/05 12:33:53;;;;;;;4.70;2.72;;;34.90;82.50;;;;;;5088105;28;20480;-71
2022/08/05 12:36:20;;;;;;;5.20;2.55;;;34.70;79.20;;;;;;5090597;28;20485;-70
2022/08/05 12:38:46;;;;;;;7.78;2.17;;;34.70;80.20;;;;;;5092482;28;20124;-71
2022/08/05 12:41:12;;;;;;;5.65;2.33;;;34.60;80.10;;;;;;5091933;28;20095;-71
2022/08/05 12:43:51;;;;;;;4.88;2.55;;;34.70;80.70;;;;;;5092017;28;20043;-71
2022/08/05 12:46:28;;;;;;;9.02;3.00;;;34.90;80.60;;;;;;5116179;27;20027;-71
2022/08/05 12:48:57;;;;;;;4.32;2.75;;;34.70;81.00;;;;;;5132998;27;20019;-71
2022/08/05 12:51:23;;;;;;;4.15;2.70;;;34.80;80.10;;;;;;5133023;27;20050;-71
2022/08/05 12:53:48;;;;;;;6.32;2.58;;;34.80;80.00;;;;;;5132681;27;20484;-71
2022/08/05 12:56:21;;;;;;;4.70;2.78;;;34.90;81.00;;;;;;5098178;27;20034;-71
2022/08/05 12:59:13;;;;;;;5.38;2.83;;;35.00;79.50;;;;;;5091383;28;20047;-71
2022/08/05 13:01:40;;;;;;;6.70;2.63;;;34.90;80.20;;;;;;5091559;28;20024;-71